Terminal Aerodrome Forecast
Issued by NWS Tulsa, OK

Home | Current Version | Previous Version | Text Only | Print | Product List | Glossary On
Versions: 1 2 3 4 5 6 7 8 9 10 11 12
374
FTUS44 KTSA 231722
TAFFSM
TAF
KFSM 231722Z 2318/2418 30009KT P6SM BKN040
      TEMPO 2320/2324 6SM -SHRA BKN025
     FM240000 29005KT P6SM BKN050
     FM241000 29004KT P6SM BKN025
      TEMPO 2410/2414 BKN012
     FM241600 30012G18KT P6SM BKN035=

USA.gov is the U.S. government's official web portal to all federal, state and local government web resources and services.